sensor_id;sensor_type;location;lat;lon;timestamp;P1;durP1;ratioP1;P2;durP2;ratioP2
3637;SDS011;1835;50.068;8.154;2022-09-28T00:00:11;8.13;;;3.10;;
3637;SDS011;1835;50.068;8.154;2022-09-28T00:02:41;4.37;;;2.83;;
3637;SDS011;1835;50.068;8.154;2022-09-28T00:05:09;4.20;;;2.40;;
3637;SDS011;1835;50.068;8.154;2022-09-28T00:07:38;7.47;;;2.37;;
3637;SDS011;1835;50.068;8.154;2022-09-28T00:10:07;3.33;;;2.43;;
3637;SDS011;1835;50.068;8.154;2022-09-28T00:12:36;3.23;;;2.60;;
3637;SDS011;1835;50.068;8.154;2022-09-28T00:15:04;6.53;;;2.63;;
3637;SDS011;1835;50.068;8.154;2022-09-28T00:17:33;15.47;;;2.50;;
3637;SDS011;1835;50.068;8.154;2022-09-28T00:20:03;2.87;;;2.37;;
3637;SDS011;1835;50.068;8.154;2022-09-28T00:22:32;6.33;;;2.53;;
3637;SDS011;1835;50.068;8.154;2022-09-28T00:25:00;7.83;;;3.40;;
3637;SDS011;1835;50.068;8.154;2022-09-28T00:27:28;11.40;;;2.67;;
3637;SDS011;1835;50.068;8.154;2022-09-28T00:29:56;2.57;;;2.10;;
3637;SDS011;1835;50.068;8.154;2022-09-28T00:32:25;8.43;;;2.33;;
3637;SDS011;1835;50.068;8.154;2022-09-28T00:34:53;4.40;;;3.17;;
3637;SDS011;1835;50.068;8.154;2022-09-28T00:37:23;4.53;;;2.83;;
3637;SDS011;1835;50.068;8.154;2022-09-28T00:39:51;4.03;;;2.40;;
3637;SDS011;1835;50.068;8.154;2022-09-28T00:42:20;2.53;;;2.33;;
3637;SDS011;1835;50.068;8.154;2022-09-28T00:44:50;4.30;;;2.60;;
3637;SDS011;1835;50.068;8.154;2022-09-28T00:47:20;4.37;;;3.23;;
3637;SDS011;1835;50.068;8.154;2022-09-28T00:50:18;4.00;;;2.50;;
3637;SDS011;1835;50.068;8.154;2022-09-28T00:52:56;2.30;;;2.20;;
3637;SDS011;1835;50.068;8.154;2022-09-28T00:55:29;2.90;;;2.40;;
3637;SDS011;1835;50.068;8.154;2022-09-28T00:58:04;2.70;;;2.50;;
3637;SDS011;1835;50.068;8.154;2022-09-28T01:00:35;3.37;;;3.17;;
3637;SDS011;1835;50.068;8.154;2022-09-28T01:03:05;3.17;;;2.13;;
3637;SDS011;1835;50.068;8.154;2022-09-28T01:05:35;3.10;;;2.30;;
3637;SDS011;1835;50.068;8.154;2022-09-28T01:08:07;4.10;;;2.20;;
3637;SDS011;1835;50.068;8.154;2022-09-28T01:10:36;3.70;;;3.10;;
3637;SDS011;1835;50.068;8.154;2022-09-28T01:13:08;5.50;;;3.00;;
3637;SDS011;1835;50.068;8.154;2022-09-28T01:15:38;5.33;;;2.80;;
3637;SDS011;1835;50.068;8.154;2022-09-28T01:18:16;6.20;;;3.27;;
3637;SDS011;1835;50.068;8.154;2022-09-28T01:20:53;5.83;;;3.40;;
3637;SDS011;1835;50.068;8.154;2022-09-28T01:23:42;5.37;;;3.53;;
3637;SDS011;1835;50.068;8.154;2022-09-28T01:27:05;4.17;;;3.73;;
3637;SDS011;1835;50.068;8.154;2022-09-28T01:29:44;12.10;;;4.33;;
3637;SDS011;1835;50.068;8.154;2022-09-28T01:32:24;4.33;;;3.40;;
3637;SDS011;1835;50.068;8.154;2022-09-28T01:35:01;3.50;;;3.20;;
3637;SDS011;1835;50.068;8.154;2022-09-28T01:37:36;6.33;;;3.63;;
3637;SDS011;1835;50.068;8.154;2022-09-28T01:40:13;4.97;;;3.53;;
3637;SDS011;1835;50.068;8.154;2022-09-28T01:42:44;5.40;;;3.13;;
3637;SDS011;1835;50.068;8.154;2022-09-28T01:45:17;11.93;;;3.27;;
3637;SDS011;1835;50.068;8.154;2022-09-28T01:47:50;5.30;;;3.53;;
3637;SDS011;1835;50.068;8.154;2022-09-28T01:50:23;7.90;;;3.40;;
3637;SDS011;1835;50.068;8.154;2022-09-28T01:52:57;3.03;;;2.60;;
3637;SDS011;1835;50.068;8.154;2022-09-28T01:55:31;3.30;;;2.50;;
3637;SDS011;1835;50.068;8.154;2022-09-28T01:58:04;1.60;;;1.50;;
3637;SDS011;1835;50.068;8.154;2022-09-28T02:00:38;1.73;;;1.50;;
3637;SDS011;1835;50.068;8.154;2022-09-28T02:03:11;5.77;;;1.73;;
3637;SDS011;1835;50.068;8.154;2022-09-28T02:05:45;1.77;;;1.30;;
3637;SDS011;1835;50.068;8.154;2022-09-28T02:08:18;1.20;;;1.20;;
3637;SDS011;1835;50.068;8.154;2022-09-28T02:10:53;1.20;;;1.20;;
3637;SDS011;1835;50.068;8.154;2022-09-28T02:13:28;2.00;;;0.90;;
3637;SDS011;1835;50.068;8.154;2022-09-28T02:16:02;1.10;;;1.10;;
3637;SDS011;1835;50.068;8.154;2022-09-28T02:18:36;0.80;;;0.80;;
3637;SDS011;1835;50.068;8.154;2022-09-28T02:21:05;0.80;;;0.80;;
3637;SDS011;1835;50.068;8.154;2022-09-28T02:23:40;0.77;;;0.77;;
3637;SDS011;1835;50.068;8.154;2022-09-28T02:26:19;0.70;;;0.70;;
3637;SDS011;1835;50.068;8.154;2022-09-28T02:28:54;2.63;;;0.90;;
3637;SDS011;1835;50.068;8.154;2022-09-28T02:31:22;1.27;;;1.27;;
3637;SDS011;1835;50.068;8.154;2022-09-28T02:33:50;2.10;;;0.93;;
3637;SDS011;1835;50.068;8.154;2022-09-28T02:36:21;0.90;;;0.90;;
3637;SDS011;1835;50.068;8.154;2022-09-28T02:38:51;2.67;;;1.50;;
3637;SDS011;1835;50.068;8.154;2022-09-28T02:41:24;1.67;;;1.20;;
3637;SDS011;1835;50.068;8.154;2022-09-28T02:44:09;3.47;;;1.20;;
3637;SDS011;1835;50.068;8.154;2022-09-28T02:46:48;3.63;;;0.80;;
3637;SDS011;1835;50.068;8.154;2022-09-28T02:49:26;0.70;;;0.70;;
3637;SDS011;1835;50.068;8.154;2022-09-28T02:52:05;1.43;;;1.10;;
3637;SDS011;1835;50.068;8.154;2022-09-28T02:57:55;1.00;;;1.00;;
3637;SDS011;1835;50.068;8.154;2022-09-28T03:00:43;0.70;;;0.70;;
3637;SDS011;1835;50.068;8.154;2022-09-28T03:03:17;3.90;;;1.13;;
3637;SDS011;1835;50.068;8.154;2022-09-28T03:05:52;3.90;;;1.00;;
3637;SDS011;1835;50.068;8.154;2022-09-28T03:08:26;0.80;;;0.80;;
3637;SDS011;1835;50.068;8.154;2022-09-28T03:11:01;7.70;;;0.90;;
3637;SDS011;1835;50.068;8.154;2022-09-28T03:13:33;3.80;;;0.90;;
3637;SDS011;1835;50.068;8.154;2022-09-28T03:16:07;7.17;;;1.13;;
3637;SDS011;1835;50.068;8.154;2022-09-28T03:18:37;4.33;;;1.10;;
3637;SDS011;1835;50.068;8.154;2022-09-28T03:21:05;0.70;;;0.70;;
3637;SDS011;1835;50.068;8.154;2022-09-28T03:23:33;16.07;;;1.53;;
3637;SDS011;1835;50.068;8.154;2022-09-28T03:26:01;6.80;;;0.70;;
3637;SDS011;1835;50.068;8.154;2022-09-28T03:28:30;0.70;;;0.70;;
3637;SDS011;1835;50.068;8.154;2022-09-28T03:30:59;0.77;;;0.77;;
3637;SDS011;1835;50.068;8.154;2022-09-28T03:33:29;1.10;;;1.00;;
3637;SDS011;1835;50.068;8.154;2022-09-28T03:35:57;0.67;;;0.67;;
3637;SDS011;1835;50.068;8.154;2022-09-28T03:38:25;0.90;;;0.90;;
3637;SDS011;1835;50.068;8.154;2022-09-28T03:40:53;1.03;;;0.80;;
3637;SDS011;1835;50.068;8.154;2022-09-28T03:43:24;0.73;;;0.73;;
3637;SDS011;1835;50.068;8.154;2022-09-28T03:45:54;0.70;;;0.70;;
3637;SDS011;1835;50.068;8.154;2022-09-28T03:48:23;2.10;;;0.70;;
3637;SDS011;1835;50.068;8.154;2022-09-28T03:51:00;0.83;;;0.83;;
3637;SDS011;1835;50.068;8.154;2022-09-28T03:53:31;3.03;;;0.80;;
3637;SDS011;1835;50.068;8.154;2022-09-28T03:56:03;1.67;;;0.80;;
3637;SDS011;1835;50.068;8.154;2022-09-28T03:58:32;3.37;;;0.70;;
3637;SDS011;1835;50.068;8.154;2022-09-28T04:01:01;0.70;;;0.70;;
3637;SDS011;1835;50.068;8.154;2022-09-28T04:03:31;1.03;;;0.70;;
3637;SDS011;1835;50.068;8.154;2022-09-28T04:06:00;1.37;;;1.00;;
3637;SDS011;1835;50.068;8.154;2022-09-28T04:08:31;0.93;;;0.70;;
3637;SDS011;1835;50.068;8.154;2022-09-28T04:11:00;0.80;;;0.80;;
3637;SDS011;1835;50.068;8.154;2022-09-28T04:13:28;12.47;;;1.10;;
3637;SDS011;1835;50.068;8.154;2022-09-28T04:15:58;1.43;;;0.97;;
3637;SDS011;1835;50.068;8.154;2022-09-28T04:18:27;0.80;;;0.80;;
3637;SDS011;1835;50.068;8.154;2022-09-28T04:20:57;9.03;;;0.87;;
3637;SDS011;1835;50.068;8.154;2022-09-28T04:23:32;0.67;;;0.67;;
3637;SDS011;1835;50.068;8.154;2022-09-28T04:26:00;0.80;;;0.80;;
3637;SDS011;1835;50.068;8.154;2022-09-28T04:28:29;1.00;;;1.00;;
3637;SDS011;1835;50.068;8.154;2022-09-28T04:31:15;0.70;;;0.70;;
3637;SDS011;1835;50.068;8.154;2022-09-28T04:33:46;1.07;;;1.07;;
3637;SDS011;1835;50.068;8.154;2022-09-28T04:36:15;2.33;;;0.93;;
3637;SDS011;1835;50.068;8.154;2022-09-28T04:38:47;2.00;;;1.00;;
3637;SDS011;1835;50.068;8.154;2022-09-28T04:41:19;1.57;;;1.07;;
3637;SDS011;1835;50.068;8.154;2022-09-28T04:43:48;3.43;;;0.73;;
3637;SDS011;1835;50.068;8.154;2022-09-28T04:46:16;5.90;;;1.47;;
3637;SDS011;1835;50.068;8.154;2022-09-28T04:48:45;0.90;;;0.90;;
3637;SDS011;1835;50.068;8.154;2022-09-28T04:51:14;1.00;;;1.00;;
3637;SDS011;1835;50.068;8.154;2022-09-28T04:53:42;10.03;;;1.20;;
3637;SDS011;1835;50.068;8.154;2022-09-28T04:56:11;0.77;;;0.77;;
3637;SDS011;1835;50.068;8.154;2022-09-28T04:58:40;0.70;;;0.70;;
3637;SDS011;1835;50.068;8.154;2022-09-28T05:01:09;3.90;;;1.10;;
3637;SDS011;1835;50.068;8.154;2022-09-28T05:03:40;0.70;;;0.70;;
3637;SDS011;1835;50.068;8.154;2022-09-28T05:06:08;2.73;;;1.10;;
3637;SDS011;1835;50.068;8.154;2022-09-28T05:08:42;1.70;;;0.80;;
3637;SDS011;1835;50.068;8.154;2022-09-28T05:11:12;2.53;;;0.80;;
3637;SDS011;1835;50.068;8.154;2022-09-28T05:13:41;1.30;;;0.93;;
3637;SDS011;1835;50.068;8.154;2022-09-28T05:16:12;0.80;;;0.80;;
3637;SDS011;1835;50.068;8.154;2022-09-28T05:18:41;0.80;;;0.80;;
3637;SDS011;1835;50.068;8.154;2022-09-28T05:21:11;0.80;;;0.80;;
3637;SDS011;1835;50.068;8.154;2022-09-28T05:23:46;2.67;;;1.10;;
3637;SDS011;1835;50.068;8.154;2022-09-28T05:26:14;1.60;;;1.13;;
3637;SDS011;1835;50.068;8.154;2022-09-28T05:28:45;14.23;;;1.00;;
3637;SDS011;1835;50.068;8.154;2022-09-28T05:31:13;3.23;;;0.97;;
3637;SDS011;1835;50.068;8.154;2022-09-28T05:33:41;1.47;;;0.80;;
3637;SDS011;1835;50.068;8.154;2022-09-28T05:36:09;2.70;;;0.80;;
3637;SDS011;1835;50.068;8.154;2022-09-28T05:38:37;4.20;;;0.97;;
3637;SDS011;1835;50.068;8.154;2022-09-28T05:41:08;0.80;;;0.80;;
3637;SDS011;1835;50.068;8.154;2022-09-28T05:43:36;1.90;;;1.00;;
3637;SDS011;1835;50.068;8.154;2022-09-28T05:46:04;2.23;;;0.90;;
3637;SDS011;1835;50.068;8.154;2022-09-28T05:48:33;1.10;;;1.10;;
3637;SDS011;1835;50.068;8.154;2022-09-28T05:51:01;0.70;;;0.70;;
3637;SDS011;1835;50.068;8.154;2022-09-28T05:53:29;5.30;;;1.10;;
3637;SDS011;1835;50.068;8.154;2022-09-28T05:55:57;5.23;;;1.10;;
3637;SDS011;1835;50.068;8.154;2022-09-28T05:58:27;0.97;;;0.97;;
3637;SDS011;1835;50.068;8.154;2022-09-28T06:00:55;10.10;;;1.20;;
3637;SDS011;1835;50.068;8.154;2022-09-28T06:03:24;3.37;;;0.90;;
3637;SDS011;1835;50.068;8.154;2022-09-28T06:05:55;3.00;;;1.10;;
3637;SDS011;1835;50.068;8.154;2022-09-28T06:08:24;1.13;;;1.00;;
3637;SDS011;1835;50.068;8.154;2022-09-28T06:10:52;2.10;;;0.93;;
3637;SDS011;1835;50.068;8.154;2022-09-28T06:13:20;1.20;;;1.10;;
3637;SDS011;1835;50.068;8.154;2022-09-28T06:15:49;1.10;;;1.00;;
3637;SDS011;1835;50.068;8.154;2022-09-28T06:18:17;0.93;;;0.93;;
3637;SDS011;1835;50.068;8.154;2022-09-28T06:20:45;0.80;;;0.80;;
3637;SDS011;1835;50.068;8.154;2022-09-28T06:23:13;4.30;;;0.80;;
3637;SDS011;1835;50.068;8.154;2022-09-28T06:25:41;0.83;;;0.83;;
3637;SDS011;1835;50.068;8.154;2022-09-28T06:28:10;0.60;;;0.60;;
3637;SDS011;1835;50.068;8.154;2022-09-28T06:30:40;3.40;;;0.80;;
3637;SDS011;1835;50.068;8.154;2022-09-28T06:33:12;6.60;;;0.90;;
3637;SDS011;1835;50.068;8.154;2022-09-28T06:35:41;1.03;;;0.93;;
3637;SDS011;1835;50.068;8.154;2022-09-28T06:38:12;7.97;;;1.20;;
3637;SDS011;1835;50.068;8.154;2022-09-28T06:40:40;2.57;;;1.00;;
3637;SDS011;1835;50.068;8.154;2022-09-28T06:43:09;2.23;;;0.93;;
3637;SDS011;1835;50.068;8.154;2022-09-28T06:45:40;0.80;;;0.80;;
3637;SDS011;1835;50.068;8.154;2022-09-28T06:48:09;0.93;;;0.90;;
3637;SDS011;1835;50.068;8.154;2022-09-28T06:50:40;1.23;;;0.80;;
3637;SDS011;1835;50.068;8.154;2022-09-28T06:53:09;1.20;;;0.90;;
3637;SDS011;1835;50.068;8.154;2022-09-28T06:55:40;0.80;;;0.80;;
3637;SDS011;1835;50.068;8.154;2022-09-28T06:58:12;3.20;;;0.73;;
3637;SDS011;1835;50.068;8.154;2022-09-28T07:00:43;0.63;;;0.63;;
3637;SDS011;1835;50.068;8.154;2022-09-28T07:03:13;0.93;;;0.80;;
3637;SDS011;1835;50.068;8.154;2022-09-28T07:05:44;3.80;;;0.60;;
3637;SDS011;1835;50.068;8.154;2022-09-28T07:08:15;0.70;;;0.70;;
3637;SDS011;1835;50.068;8.154;2022-09-28T07:10:44;1.13;;;0.77;;
3637;SDS011;1835;50.068;8.154;2022-09-28T07:13:14;7.53;;;0.60;;
3637;SDS011;1835;50.068;8.154;2022-09-28T07:16:03;2.50;;;1.00;;
3637;SDS011;1835;50.068;8.154;2022-09-28T07:18:33;0.70;;;0.70;;
3637;SDS011;1835;50.068;8.154;2022-09-28T07:21:04;0.57;;;0.57;;
3637;SDS011;1835;50.068;8.154;2022-09-28T07:23:34;0.87;;;0.87;;
3637;SDS011;1835;50.068;8.154;2022-09-28T07:26:17;0.73;;;0.63;;
3637;SDS011;1835;50.068;8.154;2022-09-28T07:28:49;0.80;;;0.80;;
3637;SDS011;1835;50.068;8.154;2022-09-28T07:31:17;0.87;;;0.80;;
3637;SDS011;1835;50.068;8.154;2022-09-28T07:33:49;1.57;;;0.67;;
3637;SDS011;1835;50.068;8.154;2022-09-28T07:36:18;1.83;;;0.80;;
3637;SDS011;1835;50.068;8.154;2022-09-28T07:38:47;0.80;;;0.80;;
3637;SDS011;1835;50.068;8.154;2022-09-28T07:41:16;3.20;;;0.90;;
3637;SDS011;1835;50.068;8.154;2022-09-28T07:43:47;4.90;;;0.83;;
3637;SDS011;1835;50.068;8.154;2022-09-28T07:46:16;9.60;;;0.83;;
3637;SDS011;1835;50.068;8.154;2022-09-28T07:48:47;0.87;;;0.87;;
3637;SDS011;1835;50.068;8.154;2022-09-28T07:51:18;2.10;;;1.40;;
3637;SDS011;1835;50.068;8.154;2022-09-28T07:53:49;0.80;;;0.70;;
3637;SDS011;1835;50.068;8.154;2022-09-28T07:56:19;3.60;;;0.80;;
3637;SDS011;1835;50.068;8.154;2022-09-28T07:58:47;2.00;;;0.80;;
3637;SDS011;1835;50.068;8.154;2022-09-28T08:01:15;3.10;;;0.77;;
3637;SDS011;1835;50.068;8.154;2022-09-28T08:03:44;0.70;;;0.70;;
3637;SDS011;1835;50.068;8.154;2022-09-28T08:06:14;0.70;;;0.70;;
3637;SDS011;1835;50.068;8.154;2022-09-28T08:08:44;2.40;;;0.87;;
3637;SDS011;1835;50.068;8.154;2022-09-28T08:11:13;0.70;;;0.70;;
3637;SDS011;1835;50.068;8.154;2022-09-28T08:13:43;2.57;;;0.70;;
3637;SDS011;1835;50.068;8.154;2022-09-28T08:16:12;6.23;;;1.10;;
3637;SDS011;1835;50.068;8.154;2022-09-28T08:18:40;3.83;;;0.97;;
3637;SDS011;1835;50.068;8.154;2022-09-28T08:21:08;4.13;;;1.00;;
3637;SDS011;1835;50.068;8.154;2022-09-28T08:23:56;1.03;;;0.80;;
3637;SDS011;1835;50.068;8.154;2022-09-28T08:26:24;0.70;;;0.70;;
3637;SDS011;1835;50.068;8.154;2022-09-28T08:28:52;0.70;;;0.70;;
3637;SDS011;1835;50.068;8.154;2022-09-28T08:31:19;11.53;;;1.10;;
3637;SDS011;1835;50.068;8.154;2022-09-28T08:33:48;2.00;;;0.73;;
3637;SDS011;1835;50.068;8.154;2022-09-28T08:36:19;0.80;;;0.80;;
3637;SDS011;1835;50.068;8.154;2022-09-28T08:38:47;0.80;;;0.80;;
3637;SDS011;1835;50.068;8.154;2022-09-28T08:41:17;0.83;;;0.70;;
3637;SDS011;1835;50.068;8.154;2022-09-28T08:43:59;0.60;;;0.60;;
3637;SDS011;1835;50.068;8.154;2022-09-28T08:46:42;1.70;;;0.70;;
3637;SDS011;1835;50.068;8.154;2022-09-28T08:49:15;0.83;;;0.67;;
3637;SDS011;1835;50.068;8.154;2022-09-28T08:51:54;0.90;;;0.90;;
3637;SDS011;1835;50.068;8.154;2022-09-28T08:54:28;2.10;;;1.57;;
3637;SDS011;1835;50.068;8.154;2022-09-28T08:57:05;1.63;;;1.17;;
3637;SDS011;1835;50.068;8.154;2022-09-28T08:59:45;2.10;;;1.37;;
3637;SDS011;1835;50.068;8.154;2022-09-28T09:02:21;1.27;;;0.70;;
3637;SDS011;1835;50.068;8.154;2022-09-28T09:04:53;0.97;;;0.80;;
3637;SDS011;1835;50.068;8.154;2022-09-28T09:07:46;1.03;;;0.83;;
3637;SDS011;1835;50.068;8.154;2022-09-28T09:10:42;0.63;;;0.63;;
3637;SDS011;1835;50.068;8.154;2022-09-28T09:13:23;3.40;;;0.90;;
3637;SDS011;1835;50.068;8.154;2022-09-28T09:16:10;3.83;;;0.90;;
3637;SDS011;1835;50.068;8.154;2022-09-28T09:18:54;3.90;;;0.90;;
3637;SDS011;1835;50.068;8.154;2022-09-28T09:21:38;2.20;;;0.80;;
3637;SDS011;1835;50.068;8.154;2022-09-28T09:24:19;0.97;;;0.70;;
3637;SDS011;1835;50.068;8.154;2022-09-28T09:26:56;4.93;;;1.30;;
3637;SDS011;1835;50.068;8.154;2022-09-28T09:29:36;2.20;;;1.03;;
3637;SDS011;1835;50.068;8.154;2022-09-28T09:32:24;3.90;;;0.80;;
3637;SDS011;1835;50.068;8.154;2022-09-28T09:35:20;0.73;;;0.73;;
3637;SDS011;1835;50.068;8.154;2022-09-28T09:38:08;2.23;;;0.70;;
3637;SDS011;1835;50.068;8.154;2022-09-28T09:41:00;1.10;;;0.73;;
3637;SDS011;1835;50.068;8.154;2022-09-28T09:43:48;3.93;;;0.60;;
3637;SDS011;1835;50.068;8.154;2022-09-28T09:46:53;3.70;;;0.80;;
3637;SDS011;1835;50.068;8.154;2022-09-28T09:49:33;1.03;;;0.90;;
3637;SDS011;1835;50.068;8.154;2022-09-28T09:52:05;1.23;;;0.70;;
3637;SDS011;1835;50.068;8.154;2022-09-28T09:54:45;1.00;;;0.87;;
3637;SDS011;1835;50.068;8.154;2022-09-28T09:57:19;1.60;;;0.93;;
3637;SDS011;1835;50.068;8.154;2022-09-28T09:59:52;1.33;;;0.70;;
3637;SDS011;1835;50.068;8.154;2022-09-28T10:02:24;1.27;;;0.70;;
3637;SDS011;1835;50.068;8.154;2022-09-28T10:04:55;0.93;;;0.60;;
3637;SDS011;1835;50.068;8.154;2022-09-28T10:07:28;1.70;;;0.70;;
3637;SDS011;1835;50.068;8.154;2022-09-28T10:10:09;0.60;;;0.60;;
3637;SDS011;1835;50.068;8.154;2022-09-28T10:12:40;0.90;;;0.90;;
3637;SDS011;1835;50.068;8.154;2022-09-28T10:15:12;4.40;;;0.80;;
3637;SDS011;1835;50.068;8.154;2022-09-28T10:17:44;4.23;;;0.70;;
3637;SDS011;1835;50.068;8.154;2022-09-28T10:20:12;0.67;;;0.60;;
3637;SDS011;1835;50.068;8.154;2022-09-28T10:22:42;0.70;;;0.70;;
3637;SDS011;1835;50.068;8.154;2022-09-28T10:25:11;0.60;;;0.60;;
3637;SDS011;1835;50.068;8.154;2022-09-28T10:27:41;2.73;;;0.60;;
3637;SDS011;1835;50.068;8.154;2022-09-28T10:30:13;0.70;;;0.60;;
3637;SDS011;1835;50.068;8.154;2022-09-28T10:32:47;1.03;;;1.03;;
3637;SDS011;1835;50.068;8.154;2022-09-28T10:35:20;0.80;;;0.80;;
3637;SDS011;1835;50.068;8.154;2022-09-28T10:37:53;0.70;;;0.70;;
3637;SDS011;1835;50.068;8.154;2022-09-28T10:40:25;2.83;;;0.90;;
3637;SDS011;1835;50.068;8.154;2022-09-28T10:43:07;1.00;;;0.90;;
3637;SDS011;1835;50.068;8.154;2022-09-28T10:45:48;1.47;;;1.00;;
3637;SDS011;1835;50.068;8.154;2022-09-28T10:48:29;1.60;;;0.90;;
3637;SDS011;1835;50.068;8.154;2022-09-28T10:51:05;1.83;;;0.70;;
3637;SDS011;1835;50.068;8.154;2022-09-28T10:53:36;1.47;;;0.67;;
3637;SDS011;1835;50.068;8.154;2022-09-28T10:56:05;3.40;;;0.80;;
3637;SDS011;1835;50.068;8.154;2022-09-28T10:58:45;0.70;;;0.70;;
3637;SDS011;1835;50.068;8.154;2022-09-28T11:01:14;4.87;;;0.70;;
3637;SDS011;1835;50.068;8.154;2022-09-28T11:03:51;1.17;;;0.70;;
3637;SDS011;1835;50.068;8.154;2022-09-28T11:06:24;4.53;;;0.80;;
3637;SDS011;1835;50.068;8.154;2022-09-28T11:08:55;3.37;;;0.80;;
3637;SDS011;1835;50.068;8.154;2022-09-28T11:11:26;1.47;;;0.80;;
3637;SDS011;1835;50.068;8.154;2022-09-28T11:13:55;0.87;;;0.70;;
3637;SDS011;1835;50.068;8.154;2022-09-28T11:16:27;1.50;;;0.70;;
3637;SDS011;1835;50.068;8.154;2022-09-28T11:19:02;0.70;;;0.70;;
3637;SDS011;1835;50.068;8.154;2022-09-28T11:21:39;3.90;;;0.83;;
3637;SDS011;1835;50.068;8.154;2022-09-28T11:24:17;0.50;;;0.50;;
3637;SDS011;1835;50.068;8.154;2022-09-28T11:26:49;1.33;;;0.63;;
3637;SDS011;1835;50.068;8.154;2022-09-28T11:29:19;0.50;;;0.50;;
3637;SDS011;1835;50.068;8.154;2022-09-28T11:31:52;0.60;;;0.50;;
3637;SDS011;1835;50.068;8.154;2022-09-28T11:34:29;1.70;;;0.80;;
3637;SDS011;1835;50.068;8.154;2022-09-28T11:37:25;0.60;;;0.60;;
3637;SDS011;1835;50.068;8.154;2022-09-28T11:40:22;0.70;;;0.60;;
3637;SDS011;1835;50.068;8.154;2022-09-28T11:43:00;0.83;;;0.83;;
3637;SDS011;1835;50.068;8.154;2022-09-28T11:45:47;0.70;;;0.70;;
3637;SDS011;1835;50.068;8.154;2022-09-28T11:48:22;0.60;;;0.60;;
3637;SDS011;1835;50.068;8.154;2022-09-28T11:50:57;0.70;;;0.70;;
3637;SDS011;1835;50.068;8.154;2022-09-28T11:53:33;1.07;;;0.70;;
3637;SDS011;1835;50.068;8.154;2022-09-28T11:56:07;0.70;;;0.70;;
3637;SDS011;1835;50.068;8.154;2022-09-28T11:58:47;0.80;;;0.80;;
3637;SDS011;1835;50.068;8.154;2022-09-28T12:01:19;0.60;;;0.60;;
3637;SDS011;1835;50.068;8.154;2022-09-28T12:03:56;0.90;;;0.70;;
3637;SDS011;1835;50.068;8.154;2022-09-28T12:06:32;0.77;;;0.77;;
3637;SDS011;1835;50.068;8.154;2022-09-28T12:09:12;2.60;;;0.80;;
3637;SDS011;1835;50.068;8.154;2022-09-28T12:11:46;1.90;;;0.73;;
3637;SDS011;1835;50.068;8.154;2022-09-28T12:14:19;3.30;;;0.87;;
3637;SDS011;1835;50.068;8.154;2022-09-28T12:16:53;4.20;;;0.70;;
3637;SDS011;1835;50.068;8.154;2022-09-28T12:19:34;3.10;;;1.67;;
3637;SDS011;1835;50.068;8.154;2022-09-28T12:22:12;0.80;;;0.80;;
3637;SDS011;1835;50.068;8.154;2022-09-28T12:24:47;2.10;;;0.70;;
3637;SDS011;1835;50.068;8.154;2022-09-28T12:27:19;0.50;;;0.50;;
3637;SDS011;1835;50.068;8.154;2022-09-28T12:29:52;0.77;;;0.77;;
3637;SDS011;1835;50.068;8.154;2022-09-28T12:32:31;0.80;;;0.80;;
3637;SDS011;1835;50.068;8.154;2022-09-28T12:35:09;0.80;;;0.60;;
3637;SDS011;1835;50.068;8.154;2022-09-28T12:37:44;2.77;;;0.70;;
3637;SDS011;1835;50.068;8.154;2022-09-28T12:40:30;0.73;;;0.73;;
3637;SDS011;1835;50.068;8.154;2022-09-28T12:46:10;2.63;;;0.80;;
3637;SDS011;1835;50.068;8.154;2022-09-28T12:48:58;1.43;;;0.70;;
3637;SDS011;1835;50.068;8.154;2022-09-28T12:52:07;1.93;;;0.90;;
3637;SDS011;1835;50.068;8.154;2022-09-28T12:55:11;0.77;;;0.70;;
3637;SDS011;1835;50.068;8.154;2022-09-28T12:57:56;0.93;;;0.70;;
3637;SDS011;1835;50.068;8.154;2022-09-28T13:00:36;10.03;;;0.80;;
3637;SDS011;1835;50.068;8.154;2022-09-28T13:09:18;0.90;;;0.77;;
3637;SDS011;1835;50.068;8.154;2022-09-28T13:14:58;12.10;;;0.93;;
3637;SDS011;1835;50.068;8.154;2022-09-28T13:17:43;0.60;;;0.60;;
3637;SDS011;1835;50.068;8.154;2022-09-28T13:20:25;0.70;;;0.70;;
3637;SDS011;1835;50.068;8.154;2022-09-28T13:23:04;1.13;;;0.60;;
3637;SDS011;1835;50.068;8.154;2022-09-28T13:25:46;0.60;;;0.60;;
3637;SDS011;1835;50.068;8.154;2022-09-28T13:28:22;1.00;;;0.70;;
3637;SDS011;1835;50.068;8.154;2022-09-28T13:30:52;2.00;;;0.83;;
3637;SDS011;1835;50.068;8.154;2022-09-28T13:33:27;0.90;;;0.80;;
3637;SDS011;1835;50.068;8.154;2022-09-28T13:36:00;2.50;;;0.80;;
3637;SDS011;1835;50.068;8.154;2022-09-28T13:41:18;2.20;;;0.70;;
3637;SDS011;1835;50.068;8.154;2022-09-28T13:43:56;1.27;;;0.80;;
3637;SDS011;1835;50.068;8.154;2022-09-28T13:47:20;0.87;;;0.87;;
3637;SDS011;1835;50.068;8.154;2022-09-28T13:50:13;0.50;;;0.50;;
3637;SDS011;1835;50.068;8.154;2022-09-28T13:52:56;1.00;;;0.80;;
3637;SDS011;1835;50.068;8.154;2022-09-28T13:55:36;0.60;;;0.60;;
3637;SDS011;1835;50.068;8.154;2022-09-28T13:58:20;0.50;;;0.50;;
3637;SDS011;1835;50.068;8.154;2022-09-28T14:00:55;1.17;;;0.83;;
3637;SDS011;1835;50.068;8.154;2022-09-28T14:03:41;0.87;;;0.57;;
3637;SDS011;1835;50.068;8.154;2022-09-28T14:06:22;0.77;;;0.50;;
3637;SDS011;1835;50.068;8.154;2022-09-28T14:12:26;8.97;;;0.80;;
3637;SDS011;1835;50.068;8.154;2022-09-28T14:18:15;3.23;;;0.70;;
3637;SDS011;1835;50.068;8.154;2022-09-28T14:24:02;3.90;;;0.60;;
3637;SDS011;1835;50.068;8.154;2022-09-28T14:26:57;1.27;;;0.73;;
3637;SDS011;1835;50.068;8.154;2022-09-28T14:29:53;0.60;;;0.60;;
3637;SDS011;1835;50.068;8.154;2022-09-28T14:32:44;1.50;;;0.60;;
3637;SDS011;1835;50.068;8.154;2022-09-28T14:35:24;1.37;;;0.67;;
3637;SDS011;1835;50.068;8.154;2022-09-28T14:37:58;1.20;;;0.50;;
3637;SDS011;1835;50.068;8.154;2022-09-28T14:43:57;0.70;;;0.57;;
3637;SDS011;1835;50.068;8.154;2022-09-28T14:46:36;0.70;;;0.70;;
3637;SDS011;1835;50.068;8.154;2022-09-28T14:52:15;3.63;;;0.60;;
3637;SDS011;1835;50.068;8.154;2022-09-28T14:55:12;0.80;;;0.70;;
3637;SDS011;1835;50.068;8.154;2022-09-28T14:57:52;0.73;;;0.60;;
3637;SDS011;1835;50.068;8.154;2022-09-28T15:00:26;0.87;;;0.60;;
3637;SDS011;1835;50.068;8.154;2022-09-28T15:03:01;0.60;;;0.60;;
3637;SDS011;1835;50.068;8.154;2022-09-28T15:05:40;2.37;;;0.80;;
3637;SDS011;1835;50.068;8.154;2022-09-28T15:08:13;1.53;;;0.80;;
3637;SDS011;1835;50.068;8.154;2022-09-28T15:10:44;2.53;;;0.70;;
3637;SDS011;1835;50.068;8.154;2022-09-28T15:13:18;0.80;;;0.80;;
3637;SDS011;1835;50.068;8.154;2022-09-28T15:15:50;0.87;;;0.80;;
3637;SDS011;1835;50.068;8.154;2022-09-28T15:18:35;0.80;;;0.80;;
3637;SDS011;1835;50.068;8.154;2022-09-28T15:21:41;1.17;;;1.13;;
3637;SDS011;1835;50.068;8.154;2022-09-28T15:24:26;0.73;;;0.70;;
3637;SDS011;1835;50.068;8.154;2022-09-28T15:26:57;2.63;;;1.63;;
3637;SDS011;1835;50.068;8.154;2022-09-28T15:29:26;1.77;;;1.67;;
3637;SDS011;1835;50.068;8.154;2022-09-28T15:31:56;1.57;;;0.90;;
3637;SDS011;1835;50.068;8.154;2022-09-28T15:34:25;0.90;;;0.90;;
3637;SDS011;1835;50.068;8.154;2022-09-28T15:37:14;1.00;;;0.90;;
3637;SDS011;1835;50.068;8.154;2022-09-28T15:39:49;0.70;;;0.70;;
3637;SDS011;1835;50.068;8.154;2022-09-28T15:42:18;1.90;;;0.70;;
3637;SDS011;1835;50.068;8.154;2022-09-28T15:45:00;0.80;;;0.80;;
3637;SDS011;1835;50.068;8.154;2022-09-28T15:47:40;0.63;;;0.60;;
3637;SDS011;1835;50.068;8.154;2022-09-28T15:50:18;4.00;;;0.70;;
3637;SDS011;1835;50.068;8.154;2022-09-28T15:52:51;2.83;;;1.90;;
3637;SDS011;1835;50.068;8.154;2022-09-28T15:55:25;1.53;;;1.43;;
3637;SDS011;1835;50.068;8.154;2022-09-28T15:58:06;6.30;;;1.43;;
3637;SDS011;1835;50.068;8.154;2022-09-28T16:00:44;1.30;;;1.20;;
3637;SDS011;1835;50.068;8.154;2022-09-28T16:03:22;12.70;;;2.10;;
3637;SDS011;1835;50.068;8.154;2022-09-28T16:06:04;1.10;;;1.10;;
3637;SDS011;1835;50.068;8.154;2022-09-28T16:08:37;0.70;;;0.70;;
3637;SDS011;1835;50.068;8.154;2022-09-28T16:11:11;5.20;;;4.13;;
3637;SDS011;1835;50.068;8.154;2022-09-28T16:13:46;0.90;;;0.90;;
3637;SDS011;1835;50.068;8.154;2022-09-28T16:16:24;1.93;;;1.10;;
3637;SDS011;1835;50.068;8.154;2022-09-28T16:18:58;0.97;;;0.90;;
3637;SDS011;1835;50.068;8.154;2022-09-28T16:21:35;2.03;;;0.90;;
3637;SDS011;1835;50.068;8.154;2022-09-28T16:24:20;2.57;;;1.83;;
3637;SDS011;1835;50.068;8.154;2022-09-28T16:26:56;1.70;;;1.53;;
3637;SDS011;1835;50.068;8.154;2022-09-28T16:29:28;0.93;;;0.93;;
3637;SDS011;1835;50.068;8.154;2022-09-28T16:35:13;1.10;;;1.10;;
3637;SDS011;1835;50.068;8.154;2022-09-28T16:37:46;1.03;;;1.03;;